Terminal Aerodrome Forecast
Issued by NWS

Home | Current Version | Previous Version | Text Only | Print | Product List | Glossary On
Versions: 1 2 3 4 5 6 7 8 9 10 11 12 13 14 15 16 17
000
FTXN70 PGUM 301244 RRX
TAFTPN
TAF
PTPN 301244Z 3013/3112 07010KT P6SM VCSH FEW018 SCT120=

USA.gov is the U.S. government's official web portal to all federal, state and local government web resources and services.